sensor_id;sensor_type;location;lat;lon;timestamp;pressure;altitude;pressure_sealevel;temperature;humidity
64841;BME280;51307;52.162;7.560;2023-05-24T00:01:07;101829.50;;;9.93;nan
64841;BME280;51307;52.162;7.560;2023-05-24T00:03:33;101823.63;;;9.57;nan
64841;BME280;51307;52.162;7.560;2023-05-24T00:06:02;101838.78;;;10.20;nan
64841;BME280;51307;52.162;7.560;2023-05-24T00:08:34;101838.38;;;9.93;nan
64841;BME280;51307;52.162;7.560;2023-05-24T00:10:59;101835.69;;;9.93;nan
64841;BME280;51307;52.162;7.560;2023-05-24T00:13:25;101827.22;;;10.40;nan
64841;BME280;51307;52.162;7.560;2023-05-24T00:15:51;101833.16;;;9.92;nan
64841;BME280;51307;52.162;7.560;2023-05-24T00:18:17;101829.47;;;10.14;nan
64841;BME280;51307;52.162;7.560;2023-05-24T00:20:43;101829.03;;;9.88;nan
64841;BME280;51307;52.162;7.560;2023-05-24T00:23:09;101827.94;;;9.90;nan
64841;BME280;51307;52.162;7.560;2023-05-24T00:25:34;101833.09;;;9.82;nan
64841;BME280;51307;52.162;7.560;2023-05-24T00:28:00;101824.34;;;9.80;nan
64841;BME280;51307;52.162;7.560;2023-05-24T00:30:26;101812.00;;;9.47;nan
64841;BME280;51307;52.162;7.560;2023-05-24T00:32:52;101816.97;;;9.93;nan
64841;BME280;51307;52.162;7.560;2023-05-24T00:35:17;101813.31;;;9.73;nan
64841;BME280;51307;52.162;7.560;2023-05-24T00:37:43;101814.28;;;9.72;nan
64841;BME280;51307;52.162;7.560;2023-05-24T00:40:12;101815.41;;;9.91;nan
64841;BME280;51307;52.162;7.560;2023-05-24T00:42:38;101804.47;;;9.73;nan
64841;BME280;51307;52.162;7.560;2023-05-24T00:45:04;101805.16;;;9.54;nan
64841;BME280;51307;52.162;7.560;2023-05-24T00:47:31;101807.47;;;9.80;nan
64841;BME280;51307;52.162;7.560;2023-05-24T00:49:57;101809.28;;;9.79;nan
64841;BME280;51307;52.162;7.560;2023-05-24T00:52:23;101798.06;;;9.64;nan
64841;BME280;51307;52.162;7.560;2023-05-24T00:54:49;101806.97;;;9.53;nan
64841;BME280;51307;52.162;7.560;2023-05-24T00:57:15;101805.16;;;9.54;nan
64841;BME280;51307;52.162;7.560;2023-05-24T00:59:43;101802.94;;;9.59;nan
64841;BME280;51307;52.162;7.560;2023-05-24T01:02:09;101804.13;;;9.66;nan
64841;BME280;51307;52.162;7.560;2023-05-24T01:04:34;101793.16;;;9.48;nan
64841;BME280;51307;52.162;7.560;2023-05-24T01:07:14;101793.59;;;9.65;nan
64841;BME280;51307;52.162;7.560;2023-05-24T01:10:02;101796.03;;;9.56;nan
64841;BME280;51307;52.162;7.560;2023-05-24T01:13:11;101793.13;;;9.59;nan
64841;BME280;51307;52.162;7.560;2023-05-24T01:15:44;101778.44;;;9.75;nan
64841;BME280;51307;52.162;7.560;2023-05-24T01:18:23;101787.00;;;9.36;nan
64841;BME280;51307;52.162;7.560;2023-05-24T01:21:18;101788.75;;;9.58;nan
64841;BME280;51307;52.162;7.560;2023-05-24T01:27:06;101776.91;;;9.51;nan
64841;BME280;51307;52.162;7.560;2023-05-24T01:29:33;101765.88;;;9.45;nan
64841;BME280;51307;52.162;7.560;2023-05-24T01:32:00;101768.22;;;9.59;nan
64841;BME280;51307;52.162;7.560;2023-05-24T01:34:26;101772.38;;;9.52;nan
64841;BME280;51307;52.162;7.560;2023-05-24T01:36:51;101774.38;;;9.38;nan
64841;BME280;51307;52.162;7.560;2023-05-24T01:39:19;101784.31;;;9.69;nan
64841;BME280;51307;52.162;7.560;2023-05-24T01:42:03;101781.25;;;9.73;nan
64841;BME280;51307;52.162;7.560;2023-05-24T01:50:12;101772.31;;;9.63;nan
64841;BME280;51307;52.162;7.560;2023-05-24T01:52:43;101771.81;;;9.69;nan
64841;BME280;51307;52.162;7.560;2023-05-24T01:55:12;101785.03;;;9.71;nan
64841;BME280;51307;52.162;7.560;2023-05-24T01:57:43;101786.91;;;9.38;nan
64841;BME280;51307;52.162;7.560;2023-05-24T02:00:10;101795.81;;;9.48;nan
64841;BME280;51307;52.162;7.560;2023-05-24T02:02:38;101792.25;;;9.38;nan
64841;BME280;51307;52.162;7.560;2023-05-24T02:05:04;101788.78;;;9.26;nan
64841;BME280;51307;52.162;7.560;2023-05-24T02:07:29;101782.81;;;9.55;nan
64841;BME280;51307;52.162;7.560;2023-05-24T02:09:55;101784.34;;;9.36;nan
64841;BME280;51307;52.162;7.560;2023-05-24T02:12:21;101780.44;;;9.08;nan
64841;BME280;51307;52.162;7.560;2023-05-24T02:14:46;101777.50;;;9.22;nan
64841;BME280;51307;52.162;7.560;2023-05-24T02:17:16;101770.03;;;9.05;nan
64841;BME280;51307;52.162;7.560;2023-05-24T02:19:42;101776.44;;;9.14;nan
64841;BME280;51307;52.162;7.560;2023-05-24T02:22:08;101775.56;;;9.13;nan
64841;BME280;51307;52.162;7.560;2023-05-24T02:24:33;101777.06;;;9.06;nan
64841;BME280;51307;52.162;7.560;2023-05-24T02:26:59;101786.03;;;9.37;nan
64841;BME280;51307;52.162;7.560;2023-05-24T02:29:25;101773.66;;;9.15;nan
64841;BME280;51307;52.162;7.560;2023-05-24T02:31:51;101777.00;;;8.96;nan
64841;BME280;51307;52.162;7.560;2023-05-24T02:34:21;101779.69;;;9.17;nan
64841;BME280;51307;52.162;7.560;2023-05-24T02:36:48;101778.00;;;9.16;nan
64841;BME280;51307;52.162;7.560;2023-05-24T02:39:13;101773.16;;;9.10;nan
64841;BME280;51307;52.162;7.560;2023-05-24T02:41:39;101773.84;;;8.91;nan
64841;BME280;51307;52.162;7.560;2023-05-24T02:44:05;101771.88;;;8.93;nan
64841;BME280;51307;52.162;7.560;2023-05-24T02:46:31;101760.75;;;9.20;nan
64841;BME280;51307;52.162;7.560;2023-05-24T02:48:56;101768.38;;;8.81;nan
64841;BME280;51307;52.162;7.560;2023-05-24T02:51:22;101764.38;;;8.87;nan
64841;BME280;51307;52.162;7.560;2023-05-24T02:53:48;101766.31;;;8.85;nan
64841;BME280;51307;52.162;7.560;2023-05-24T02:56:13;101766.09;;;8.54;nan
64841;BME280;51307;52.162;7.560;2023-05-24T02:58:41;101773.38;;;8.86;nan
64841;BME280;51307;52.162;7.560;2023-05-24T03:01:06;101772.50;;;8.74;nan
64841;BME280;51307;52.162;7.560;2023-05-24T03:03:32;101768.50;;;8.68;nan
64841;BME280;51307;52.162;7.560;2023-05-24T03:05:58;101764.00;;;8.91;nan
64841;BME280;51307;52.162;7.560;2023-05-24T03:08:23;101762.06;;;8.94;nan
64841;BME280;51307;52.162;7.560;2023-05-24T03:10:49;101766.59;;;8.59;nan
64841;BME280;51307;52.162;7.560;2023-05-24T03:13:14;101767.69;;;8.56;nan
64841;BME280;51307;52.162;7.560;2023-05-24T03:15:40;101761.50;;;8.56;nan
64841;BME280;51307;52.162;7.560;2023-05-24T03:18:07;101756.00;;;8.80;nan
64841;BME280;51307;52.162;7.560;2023-05-24T03:20:32;101756.53;;;8.63;nan
64841;BME280;51307;52.162;7.560;2023-05-24T03:22:58;101762.31;;;8.79;nan
64841;BME280;51307;52.162;7.560;2023-05-24T03:25:23;101762.84;;;8.50;nan
64841;BME280;51307;52.162;7.560;2023-05-24T03:27:48;101767.09;;;8.41;nan
64841;BME280;51307;52.162;7.560;2023-05-24T03:30:14;101757.38;;;8.40;nan
64841;BME280;51307;52.162;7.560;2023-05-24T03:32:40;101758.34;;;8.51;nan
64841;BME280;51307;52.162;7.560;2023-05-24T03:35:05;101757.88;;;8.46;nan
64841;BME280;51307;52.162;7.560;2023-05-24T03:37:31;101759.28;;;8.72;nan
64841;BME280;51307;52.162;7.560;2023-05-24T03:39:56;101761.09;;;8.83;nan
64841;BME280;51307;52.162;7.560;2023-05-24T03:42:21;101756.56;;;8.40;nan
64841;BME280;51307;52.162;7.560;2023-05-24T03:44:47;101754.41;;;8.89;nan
64841;BME280;51307;52.162;7.560;2023-05-24T03:47:12;101756.53;;;9.06;nan
64841;BME280;51307;52.162;7.560;2023-05-24T03:49:38;101767.75;;;8.89;nan
64841;BME280;51307;52.162;7.560;2023-05-24T03:52:04;101762.28;;;8.90;nan
64841;BME280;51307;52.162;7.560;2023-05-24T03:54:29;101762.78;;;8.84;nan
64841;BME280;51307;52.162;7.560;2023-05-24T03:56:55;101763.09;;;9.14;nan
64841;BME280;51307;52.162;7.560;2023-05-24T03:59:20;101763.50;;;8.98;nan
64841;BME280;51307;52.162;7.560;2023-05-24T04:01:46;101756.72;;;8.94;nan
64841;BME280;51307;52.162;7.560;2023-05-24T04:04:12;101768.25;;;8.94;nan
64841;BME280;51307;52.162;7.560;2023-05-24T04:06:37;101764.47;;;8.97;nan
64841;BME280;51307;52.162;7.560;2023-05-24T04:09:06;101775.88;;;8.99;nan
64841;BME280;51307;52.162;7.560;2023-05-24T04:11:31;101769.09;;;8.83;nan
64841;BME280;51307;52.162;7.560;2023-05-24T04:13:57;101767.78;;;8.78;nan
64841;BME280;51307;52.162;7.560;2023-05-24T04:16:24;101754.19;;;8.92;nan
64841;BME280;51307;52.162;7.560;2023-05-24T04:18:50;101758.31;;;8.73;nan
64841;BME280;51307;52.162;7.560;2023-05-24T04:21:16;101757.28;;;9.30;nan
64841;BME280;51307;52.162;7.560;2023-05-24T04:23:42;101754.88;;;9.05;nan
64841;BME280;51307;52.162;7.560;2023-05-24T04:26:07;101753.13;;;9.16;nan
64841;BME280;51307;52.162;7.560;2023-05-24T04:28:35;101754.75;;;8.96;nan
64841;BME280;51307;52.162;7.560;2023-05-24T04:31:05;101748.81;;;9.03;nan
64841;BME280;51307;52.162;7.560;2023-05-24T04:33:32;101752.69;;;8.99;nan
64841;BME280;51307;52.162;7.560;2023-05-24T04:35:57;101758.50;;;9.04;nan
64841;BME280;51307;52.162;7.560;2023-05-24T04:38:25;101757.25;;;9.41;nan
64841;BME280;51307;52.162;7.560;2023-05-24T04:40:54;101760.72;;;8.99;nan
64841;BME280;51307;52.162;7.560;2023-05-24T04:43:21;101753.00;;;9.17;nan
64841;BME280;51307;52.162;7.560;2023-05-24T04:45:47;101759.88;;;8.99;nan
64841;BME280;51307;52.162;7.560;2023-05-24T04:48:12;101767.09;;;9.08;nan
64841;BME280;51307;52.162;7.560;2023-05-24T04:50:38;101755.53;;;9.19;nan
64841;BME280;51307;52.162;7.560;2023-05-24T04:53:04;101760.50;;;9.23;nan
64841;BME280;51307;52.162;7.560;2023-05-24T04:55:29;101772.22;;;9.32;nan
64841;BME280;51307;52.162;7.560;2023-05-24T04:57:55;101770.50;;;9.10;nan
64841;BME280;51307;52.162;7.560;2023-05-24T05:00:21;101774.19;;;9.30;nan
64841;BME280;51307;52.162;7.560;2023-05-24T05:02:47;101783.50;;;9.36;nan
64841;BME280;51307;52.162;7.560;2023-05-24T05:05:12;101778.03;;;9.37;nan
64841;BME280;51307;52.162;7.560;2023-05-24T05:07:38;101784.78;;;9.53;nan
64841;BME280;51307;52.162;7.560;2023-05-24T05:10:05;101793.50;;;9.55;nan
64841;BME280;51307;52.162;7.560;2023-05-24T05:12:31;101782.44;;;9.59;nan
64841;BME280;51307;52.162;7.560;2023-05-24T05:14:56;101777.66;;;9.63;nan
64841;BME280;51307;52.162;7.560;2023-05-24T05:17:22;101773.53;;;9.59;nan
64841;BME280;51307;52.162;7.560;2023-05-24T05:19:47;101783.28;;;9.81;nan
64841;BME280;51307;52.162;7.560;2023-05-24T05:22:13;101788.41;;;9.52;nan
64841;BME280;51307;52.162;7.560;2023-05-24T05:24:38;101783.78;;;9.75;nan
64841;BME280;51307;52.162;7.560;2023-05-24T05:27:04;101779.69;;;9.92;nan
64841;BME280;51307;52.162;7.560;2023-05-24T05:29:30;101790.66;;;10.20;nan
64841;BME280;51307;52.162;7.560;2023-05-24T05:31:55;101789.47;;;9.82;nan
64841;BME280;51307;52.162;7.560;2023-05-24T05:34:21;101792.25;;;10.01;nan
64841;BME280;51307;52.162;7.560;2023-05-24T05:36:46;101790.78;;;10.18;nan
64841;BME280;51307;52.162;7.560;2023-05-24T05:39:12;101785.19;;;10.21;nan
64841;BME280;51307;52.162;7.560;2023-05-24T05:41:38;101787.72;;;10.23;nan
64841;BME280;51307;52.162;7.560;2023-05-24T05:44:04;101789.94;;;10.18;nan
64841;BME280;51307;52.162;7.560;2023-05-24T05:46:30;101790.88;;;9.86;nan
64841;BME280;51307;52.162;7.560;2023-05-24T05:48:56;101799.19;;;9.83;nan
64841;BME280;51307;52.162;7.560;2023-05-24T05:51:21;101784.94;;;10.03;nan
64841;BME280;51307;52.162;7.560;2023-05-24T05:53:47;101785.47;;;9.97;nan
64841;BME280;51307;52.162;7.560;2023-05-24T05:56:12;101785.59;;;9.96;nan
64841;BME280;51307;52.162;7.560;2023-05-24T05:58:38;101791.69;;;10.29;nan
64841;BME280;51307;52.162;7.560;2023-05-24T06:01:03;101795.63;;;10.03;nan
64841;BME280;51307;52.162;7.560;2023-05-24T06:03:29;101791.34;;;9.91;nan
64841;BME280;51307;52.162;7.560;2023-05-24T06:05:54;101792.00;;;10.35;nan
64841;BME280;51307;52.162;7.560;2023-05-24T06:08:20;101791.56;;;10.09;nan
64841;BME280;51307;52.162;7.560;2023-05-24T06:10:45;101793.22;;;10.00;nan
64841;BME280;51307;52.162;7.560;2023-05-24T06:13:12;101797.44;;;9.93;nan
64841;BME280;51307;52.162;7.560;2023-05-24T06:15:37;101801.72;;;10.36;nan
64841;BME280;51307;52.162;7.560;2023-05-24T06:18:03;101790.28;;;10.65;nan
64841;BME280;51307;52.162;7.560;2023-05-24T06:20:29;101790.72;;;10.60;nan
64841;BME280;51307;52.162;7.560;2023-05-24T06:22:54;101791.53;;;10.30;nan
64841;BME280;51307;52.162;7.560;2023-05-24T06:25:21;101790.56;;;10.62;nan
64841;BME280;51307;52.162;7.560;2023-05-24T06:27:49;101782.25;;;10.65;nan
64841;BME280;51307;52.162;7.560;2023-05-24T06:30:16;101780.69;;;10.53;nan
64841;BME280;51307;52.162;7.560;2023-05-24T06:32:41;101793.28;;;10.10;nan
64841;BME280;51307;52.162;7.560;2023-05-24T06:35:07;101790.25;;;10.46;nan
64841;BME280;51307;52.162;7.560;2023-05-24T06:37:33;101784.34;;;10.62;nan
64841;BME280;51307;52.162;7.560;2023-05-24T06:39:59;101793.66;;;10.57;nan
64841;BME280;51307;52.162;7.560;2023-05-24T06:42:24;101798.59;;;10.52;nan
64841;BME280;51307;52.162;7.560;2023-05-24T06:44:50;101800.03;;;10.76;nan
64841;BME280;51307;52.162;7.560;2023-05-24T06:47:15;101815.19;;;10.56;nan
64841;BME280;51307;52.162;7.560;2023-05-24T06:49:41;101814.03;;;10.49;nan
64841;BME280;51307;52.162;7.560;2023-05-24T06:52:07;101810.91;;;10.43;nan
64841;BME280;51307;52.162;7.560;2023-05-24T06:54:33;101812.25;;;10.59;nan
64841;BME280;51307;52.162;7.560;2023-05-24T06:56:58;101811.09;;;11.02;nan
64841;BME280;51307;52.162;7.560;2023-05-24T06:59:24;101821.16;;;10.69;nan
64841;BME280;51307;52.162;7.560;2023-05-24T07:01:50;101815.19;;;10.56;nan
64841;BME280;51307;52.162;7.560;2023-05-24T07:04:22;101814.00;;;10.80;nan
64841;BME280;51307;52.162;7.560;2023-05-24T07:06:47;101813.50;;;10.96;nan
64841;BME280;51307;52.162;7.560;2023-05-24T07:09:12;101817.81;;;10.87;nan
64841;BME280;51307;52.162;7.560;2023-05-24T07:11:39;101820.94;;;10.92;nan
64841;BME280;51307;52.162;7.560;2023-05-24T07:14:05;101819.09;;;10.83;nan
64841;BME280;51307;52.162;7.560;2023-05-24T07:16:30;101824.66;;;11.10;nan
64841;BME280;51307;52.162;7.560;2023-05-24T07:18:56;101819.59;;;11.17;nan
64841;BME280;51307;52.162;7.560;2023-05-24T07:21:22;101829.31;;;11.28;nan
64841;BME280;51307;52.162;7.560;2023-05-24T07:23:50;101826.50;;;11.30;nan
64841;BME280;51307;52.162;7.560;2023-05-24T07:26:15;101818.16;;;11.33;nan
64841;BME280;51307;52.162;7.560;2023-05-24T07:28:41;101827.03;;;11.23;nan
64841;BME280;51307;52.162;7.560;2023-05-24T07:31:09;101819.84;;;11.04;nan
64841;BME280;51307;52.162;7.560;2023-05-24T07:33:36;101828.69;;;10.85;nan
64841;BME280;51307;52.162;7.560;2023-05-24T07:36:05;101822.13;;;11.28;nan
64841;BME280;51307;52.162;7.560;2023-05-24T07:38:31;101827.75;;;11.35;nan
64841;BME280;51307;52.162;7.560;2023-05-24T07:41:01;101821.28;;;11.67;nan
64841;BME280;51307;52.162;7.560;2023-05-24T07:43:30;101817.50;;;11.60;nan
64841;BME280;51307;52.162;7.560;2023-05-24T07:45:55;101823.25;;;11.75;nan
64841;BME280;51307;52.162;7.560;2023-05-24T07:48:22;101819.75;;;11.55;nan
64841;BME280;51307;52.162;7.560;2023-05-24T07:50:49;101819.03;;;11.72;nan
64841;BME280;51307;52.162;7.560;2023-05-24T07:53:15;101817.75;;;11.37;nan
64841;BME280;51307;52.162;7.560;2023-05-24T07:55:40;101820.44;;;11.47;nan
64841;BME280;51307;52.162;7.560;2023-05-24T07:58:06;101825.19;;;11.83;nan
64841;BME280;51307;52.162;7.560;2023-05-24T08:00:32;101826.53;;;11.49;nan
64841;BME280;51307;52.162;7.560;2023-05-24T08:02:58;101823.78;;;11.78;nan
64841;BME280;51307;52.162;7.560;2023-05-24T08:05:24;101823.13;;;11.86;nan
64841;BME280;51307;52.162;7.560;2023-05-24T08:07:50;101827.19;;;11.61;nan
64841;BME280;51307;52.162;7.560;2023-05-24T08:10:16;101817.88;;;11.85;nan
64841;BME280;51307;52.162;7.560;2023-05-24T08:12:43;101821.00;;;11.51;nan
64841;BME280;51307;52.162;7.560;2023-05-24T08:15:09;101821.25;;;12.06;nan
64841;BME280;51307;52.162;7.560;2023-05-24T08:17:35;101826.06;;;11.83;nan
64841;BME280;51307;52.162;7.560;2023-05-24T08:20:02;101824.66;;;11.59;nan
64841;BME280;51307;52.162;7.560;2023-05-24T08:22:30;101810.28;;;11.80;nan
64841;BME280;51307;52.162;7.560;2023-05-24T08:24:56;101810.72;;;11.56;nan
64841;BME280;51307;52.162;7.560;2023-05-24T08:27:21;101822.13;;;11.87;nan
64841;BME280;51307;52.162;7.560;2023-05-24T08:29:47;101815.56;;;12.09;nan
64841;BME280;51307;52.162;7.560;2023-05-24T08:32:13;101823.50;;;12.01;nan
64841;BME280;51307;52.162;7.560;2023-05-24T08:34:38;101820.94;;;12.09;nan
64841;BME280;51307;52.162;7.560;2023-05-24T08:37:04;101819.53;;;12.05;nan
64841;BME280;51307;52.162;7.560;2023-05-24T08:39:30;101826.69;;;12.24;nan
64841;BME280;51307;52.162;7.560;2023-05-24T08:41:56;101826.91;;;12.03;nan
64841;BME280;51307;52.162;7.560;2023-05-24T08:44:23;101827.59;;;12.15;nan
64841;BME280;51307;52.162;7.560;2023-05-24T08:46:50;101826.03;;;12.13;nan
64841;BME280;51307;52.162;7.560;2023-05-24T08:49:17;101821.97;;;11.99;nan
64841;BME280;51307;52.162;7.560;2023-05-24T08:51:43;101828.59;;;11.85;nan
64841;BME280;51307;52.162;7.560;2023-05-24T08:54:10;101824.72;;;12.26;nan
64841;BME280;51307;52.162;7.560;2023-05-24T08:56:39;101825.50;;;11.99;nan
64841;BME280;51307;52.162;7.560;2023-05-24T08:59:07;101830.31;;;11.96;nan
64841;BME280;51307;52.162;7.560;2023-05-24T09:01:36;101824.00;;;12.24;nan
64841;BME280;51307;52.162;7.560;2023-05-24T09:04:03;101829.78;;;12.30;nan
64841;BME280;51307;52.162;7.560;2023-05-24T09:06:30;101831.28;;;12.42;nan
64841;BME280;51307;52.162;7.560;2023-05-24T09:08:59;101824.97;;;12.33;nan
64841;BME280;51307;52.162;7.560;2023-05-24T09:11:27;101823.69;;;12.37;nan
64841;BME280;51307;52.162;7.560;2023-05-24T09:13:54;101834.88;;;12.60;nan
64841;BME280;51307;52.162;7.560;2023-05-24T09:16:21;101824.78;;;13.00;nan
64841;BME280;51307;52.162;7.560;2023-05-24T09:18:46;101820.25;;;13.01;nan
64841;BME280;51307;52.162;7.560;2023-05-24T09:21:12;101822.53;;;12.77;nan
64841;BME280;51307;52.162;7.560;2023-05-24T09:23:39;101821.56;;;12.97;nan
64841;BME280;51307;52.162;7.560;2023-05-24T09:26:06;101823.50;;;13.04;nan
64841;BME280;51307;52.162;7.560;2023-05-24T09:28:32;101821.63;;;13.05;nan
64841;BME280;51307;52.162;7.560;2023-05-24T09:31:00;101816.53;;;12.84;nan
64841;BME280;51307;52.162;7.560;2023-05-24T09:33:31;101821.63;;;13.05;nan
64841;BME280;51307;52.162;7.560;2023-05-24T09:35:59;101823.16;;;12.89;nan
64841;BME280;51307;52.162;7.560;2023-05-24T09:38:25;101830.31;;;12.99;nan
64841;BME280;51307;52.162;7.560;2023-05-24T09:40:59;101814.78;;;12.92;nan
64841;BME280;51307;52.162;7.560;2023-05-24T09:43:25;101825.22;;;13.23;nan
64841;BME280;51307;52.162;7.560;2023-05-24T09:45:50;101818.69;;;13.26;nan
64841;BME280;51307;52.162;7.560;2023-05-24T09:48:19;101825.06;;;13.25;nan
64841;BME280;51307;52.162;7.560;2023-05-24T09:51:05;101815.22;;;13.16;nan
64841;BME280;51307;52.162;7.560;2023-05-24T09:53:32;101820.88;;;13.12;nan
64841;BME280;51307;52.162;7.560;2023-05-24T09:56:08;101820.59;;;13.16;nan
64841;BME280;51307;52.162;7.560;2023-05-24T09:58:34;101825.69;;;13.19;nan
64841;BME280;51307;52.162;7.560;2023-05-24T10:01:07;101833.69;;;13.01;nan
64841;BME280;51307;52.162;7.560;2023-05-24T10:03:35;101827.00;;;13.05;nan
64841;BME280;51307;52.162;7.560;2023-05-24T10:06:05;101829.53;;;13.06;nan
64841;BME280;51307;52.162;7.560;2023-05-24T10:08:34;101830.28;;;13.26;nan
64841;BME280;51307;52.162;7.560;2023-05-24T10:11:04;101835.91;;;13.33;nan
64841;BME280;51307;52.162;7.560;2023-05-24T10:13:34;101834.34;;;13.31;nan
64841;BME280;51307;52.162;7.560;2023-05-24T10:16:01;101832.63;;;13.11;nan
64841;BME280;51307;52.162;7.560;2023-05-24T10:18:27;101839.41;;;13.16;nan
64841;BME280;51307;52.162;7.560;2023-05-24T10:20:54;101843.72;;;13.26;nan
64841;BME280;51307;52.162;7.560;2023-05-24T10:23:27;101832.81;;;13.28;nan
64841;BME280;51307;52.162;7.560;2023-05-24T10:26:10;101844.50;;;13.19;nan
64841;BME280;51307;52.162;7.560;2023-05-24T10:28:45;101842.66;;;13.37;nan
64841;BME280;51307;52.162;7.560;2023-05-24T10:31:21;101835.06;;;13.33;nan
64841;BME280;51307;52.162;7.560;2023-05-24T10:33:49;101839.44;;;13.34;nan
64841;BME280;51307;52.162;7.560;2023-05-24T10:36:16;101838.91;;;13.02;nan
64841;BME280;51307;52.162;7.560;2023-05-24T10:38:45;101837.91;;;13.31;nan
64841;BME280;51307;52.162;7.560;2023-05-24T10:41:12;101841.28;;;13.33;nan
64841;BME280;51307;52.162;7.560;2023-05-24T10:43:38;101839.06;;;13.47;nan
64841;BME280;51307;52.162;7.560;2023-05-24T10:46:07;101836.31;;;13.10;nan
64841;BME280;51307;52.162;7.560;2023-05-24T10:48:38;101836.59;;;13.35;nan
64841;BME280;51307;52.162;7.560;2023-05-24T10:53:57;101835.81;;;13.25;nan
64841;BME280;51307;52.162;7.560;2023-05-24T10:56:39;101839.25;;;13.17;nan
64841;BME280;51307;52.162;7.560;2023-05-24T10:59:06;101833.09;;;13.07;nan
64841;BME280;51307;52.162;7.560;2023-05-24T11:01:33;101836.53;;;12.99;nan
64841;BME280;51307;52.162;7.560;2023-05-24T11:04:08;101837.38;;;13.27;nan
64841;BME280;51307;52.162;7.560;2023-05-24T11:06:54;101833.06;;;13.17;nan
64841;BME280;51307;52.162;7.560;2023-05-24T11:09:21;101833.22;;;13.33;nan
64841;BME280;51307;52.162;7.560;2023-05-24T11:11:48;101827.31;;;13.48;nan
64841;BME280;51307;52.162;7.560;2023-05-24T11:14:19;101833.22;;;13.51;nan
64841;BME280;51307;52.162;7.560;2023-05-24T11:16:48;101830.25;;;13.36;nan
64841;BME280;51307;52.162;7.560;2023-05-24T11:21:43;101834.31;;;13.12;nan
64841;BME280;51307;52.162;7.560;2023-05-24T11:24:10;101835.50;;;13.64;nan
64841;BME280;51307;52.162;7.560;2023-05-24T11:26:36;101827.16;;;13.67;nan
64841;BME280;51307;52.162;7.560;2023-05-24T11:29:02;101833.75;;;13.73;nan
64841;BME280;51307;52.162;7.560;2023-05-24T11:31:28;101826.72;;;13.80;nan
64841;BME280;51307;52.162;7.560;2023-05-24T11:33:53;101823.03;;;13.81;nan
64841;BME280;51307;52.162;7.560;2023-05-24T11:36:19;101828.97;;;13.85;nan
64841;BME280;51307;52.162;7.560;2023-05-24T11:38:46;101823.81;;;13.73;nan
64841;BME280;51307;52.162;7.560;2023-05-24T11:41:12;101826.66;;;13.72;nan
64841;BME280;51307;52.162;7.560;2023-05-24T11:43:37;101824.53;;;13.39;nan
64841;BME280;51307;52.162;7.560;2023-05-24T11:46:03;101829.75;;;13.59;nan
64841;BME280;51307;52.162;7.560;2023-05-24T11:48:29;101826.25;;;13.40;nan
64841;BME280;51307;52.162;7.560;2023-05-24T11:50:55;101830.66;;;13.50;nan
64841;BME280;51307;52.162;7.560;2023-05-24T11:53:22;101827.75;;;13.25;nan
64841;BME280;51307;52.162;7.560;2023-05-24T11:55:49;101825.22;;;13.59;nan
64841;BME280;51307;52.162;7.560;2023-05-24T12:00:42;101827.59;;;13.62;nan
64841;BME280;51307;52.162;7.560;2023-05-24T12:03:08;101826.50;;;13.73;nan
64841;BME280;51307;52.162;7.560;2023-05-24T12:05:35;101826.28;;;13.67;nan
64841;BME280;51307;52.162;7.560;2023-05-24T12:08:07;101832.00;;;13.90;nan
64841;BME280;51307;52.162;7.560;2023-05-24T12:10:34;101826.06;;;13.78;nan
64841;BME280;51307;52.162;7.560;2023-05-24T12:13:04;101832.88;;;13.90;nan
64841;BME280;51307;52.162;7.560;2023-05-24T12:15:31;101829.16;;;13.91;nan
64841;BME280;51307;52.162;7.560;2023-05-24T12:17:58;101826.78;;;13.88;nan
64841;BME280;51307;52.162;7.560;2023-05-24T12:20:26;101825.06;;;13.61;nan
64841;BME280;51307;52.162;7.560;2023-05-24T12:22:53;101829.03;;;13.93;nan
64841;BME280;51307;52.162;7.560;2023-05-24T12:25:21;101827.47;;;13.90;nan
64841;BME280;51307;52.162;7.560;2023-05-24T12:30:21;101823.28;;;14.22;nan
64841;BME280;51307;52.162;7.560;2023-05-24T12:32:47;101828.78;;;14.31;nan
64841;BME280;51307;52.162;7.560;2023-05-24T12:35:15;101828.06;;;14.28;nan
64841;BME280;51307;52.162;7.560;2023-05-24T12:37:41;101826.34;;;14.45;nan
64841;BME280;51307;52.162;7.560;2023-05-24T12:40:15;101821.38;;;14.33;nan
64841;BME280;51307;52.162;7.560;2023-05-24T12:42:43;101823.28;;;14.40;nan
64841;BME280;51307;52.162;7.560;2023-05-24T12:45:10;101823.91;;;14.34;nan
64841;BME280;51307;52.162;7.560;2023-05-24T12:47:36;101820.25;;;14.43;nan
64841;BME280;51307;52.162;7.560;2023-05-24T12:50:02;101821.47;;;14.23;nan
64841;BME280;51307;52.162;7.560;2023-05-24T12:52:27;101824.41;;;13.85;nan
64841;BME280;51307;52.162;7.560;2023-05-24T12:54:53;101819.41;;;13.90;nan
64841;BME280;51307;52.162;7.560;2023-05-24T12:57:18;101829.63;;;14.31;nan
64841;BME280;51307;52.162;7.560;2023-05-24T12:59:44;101826.66;;;14.16;nan
64841;BME280;51307;52.162;7.560;2023-05-24T13:02:09;101826.84;;;14.23;nan
64841;BME280;51307;52.162;7.560;2023-05-24T13:04:35;101832.34;;;14.39;nan
64841;BME280;51307;52.162;7.560;2023-05-24T13:07:01;101827.28;;;14.36;nan
64841;BME280;51307;52.162;7.560;2023-05-24T13:09:27;101828.88;;;14.47;nan
64841;BME280;51307;52.162;7.560;2023-05-24T13:11:54;101832.22;;;14.23;nan
64841;BME280;51307;52.162;7.560;2023-05-24T13:14:19;101828.53;;;14.50;nan
64841;BME280;51307;52.162;7.560;2023-05-24T13:16:46;101827.59;;;14.68;nan
64841;BME280;51307;52.162;7.560;2023-05-24T13:19:12;101826.44;;;14.70;nan
64841;BME280;51307;52.162;7.560;2023-05-24T13:21:38;101825.00;;;14.50;nan
64841;BME280;51307;52.162;7.560;2023-05-24T13:24:03;101829.13;;;14.36;nan
64841;BME280;51307;52.162;7.560;2023-05-24T13:26:30;101826.25;;;14.72;nan
64841;BME280;51307;52.162;7.560;2023-05-24T13:29:02;101813.59;;;14.64;nan
64841;BME280;51307;52.162;7.560;2023-05-24T13:31:28;101816.28;;;14.64;nan
64841;BME280;51307;52.162;7.560;2023-05-24T13:33:53;101823.81;;;14.95;nan